EDDN

Nuremberg Airport

Nuremberg, Germany
METAR EDDN 190620Z 28012KT 9999 SCT015 BKN022 03/01 Q1005 R28/29//94 NOSIG
Observed Flight Rules
Jan-19 @ 06:20 UTC (45 minutes ago) Marginal Visual Flight Rules
Wind Visibility Clouds
280° at 12 knots 10,000+ meters
  • Scattered at 1,500' AGL
  • Broken at 2,200' AGL
Temperatures Readings
Current 3°C / 37°F
Dewpoint 1°C / 34°F
Humidity 87%
Altimeter 29.68" Hg
Pressure 1005 hPa
Elevation 312
METAR EDDN 190620Z 28012KT 9999 SCT015 BKN022 03/01 Q1005 R28/29//94 NOSIG
Observed Flight Rules
Jan-19 @ 06:20 UTC
(45 minutes ago)
MVFR
Wind Visibility
280° at 12 knots 10,000+ meters
Clouds
  • Scattered at 1,500' AGL
  • Broken at 2,200' AGL
Temperature Dewpoint
3°C / 37°F 1°C / 34°F
Humidity Altimeter Pressure
87% 29.68" Hg 1005 hPa